Sioux Arrow — WAG6168 — position and weather

sailwx.info

Track history (hours):
 
Tides and Currents Weather Stations Pressure Air Temp Water Temp Dewpoint Dewpoint Depression Visibility Wind Speed Wind Dir Waves Ship Positions

Sioux Arrow

Owner: HARMON, JACK L, PORT ANGELES, WA. More information available from US FCC via Universal Licensing System and Coast Guard Vessel Documentation Center.

Last reported at 2017-Mar-30 17:33 UTC. Time now 2017-Mar-30 18:28 UTC.
Position N 48°32' W 122°34'.

Type: Port tender. MMSI: 366973370.

Date/timePositionNaut miles runAvg speedWind from/ knotsBaromVisibWave heightAir tempDewpointWater temp
2017-Mar-30 17:33N 48°32' W 122°34'2 2.2
2017-Mar-30 16:33N 48°31' W 122°37'2 2.0
2017-Mar-30 15:33N 48°32' W 122°34'2 1.9
2017-Mar-30 14:33N 48°31' W 122°36'0 0.0
2017-Mar-30 13:33N 48°31' W 122°36'0 0.0
2017-Mar-30 12:33N 48°31' W 122°36'0 0.0
2017-Mar-30 11:33N 48°31' W 122°36'0 0.0
2017-Mar-30 10:33N 48°31' W 122°36'0 0.0
2017-Mar-30 09:33N 48°31' W 122°36'0 0.0
2017-Mar-30 08:33N 48°31' W 122°36'0 0.0
2017-Mar-30 07:33N 48°31' W 122°36'0 0.0
2017-Mar-30 06:33N 48°31' W 122°36'1 0.5
2017-Mar-30 05:10N 48°31' W 122°35'1 1.2
2017-Mar-30 04:33N 48°31' W 122°36'0 0.1
2017-Mar-30 03:33N 48°31' W 122°37'0 0.1
2017-Mar-30 02:33N 48°31' W 122°36'1 1.3
2017-Mar-30 01:33N 48°31' W 122°35'1 1.3
2017-Mar-30 00:33N 48°31' W 122°36'1 1.1
2017-Mar-29 23:33N 48°31' W 122°35'1 1.1
2017-Mar-29 22:33N 48°31' W 122°36'2 2.1
2017-Mar-29 21:33N 48°32' W 122°34'2 2.1
2017-Mar-29 20:34N 48°31' W 122°36'1 1.1
2017-Mar-29 19:33N 48°31' W 122°35'1 1.1
2017-Mar-29 18:33N 48°31' W 122°36'0 0.1
2017-Mar-29 17:33N 48°31' W 122°37'0 0.0
2017-Mar-29 16:33N 48°31' W 122°37'1 0.6
2017-Mar-29 15:33N 48°31' W 122°36'1 0.5
2017-Mar-29 14:33N 48°31' W 122°36'0 0.1
2017-Mar-29 13:33N 48°31' W 122°36'0 0.0
2017-Mar-29 12:33N 48°31' W 122°36'0 0.0
2017-Mar-29 11:33N 48°31' W 122°36'0 0.0
2017-Mar-29 10:33N 48°31' W 122°36'0 0.0
2017-Mar-29 09:33N 48°31' W 122°36'0 0.0
2017-Mar-29 08:33N 48°31' W 122°36'0 0.0
2017-Mar-29 07:33N 48°31' W 122°36'0 0.0
2017-Mar-29 06:33N 48°31' W 122°36'0 0.0
2017-Mar-29 05:33N 48°31' W 122°36'0 0.0
2017-Mar-29 04:33N 48°31' W 122°36'0 0.0
2017-Mar-29 03:33N 48°31' W 122°36'0 0.0
2017-Mar-29 02:33N 48°31' W 122°36'0 0.0
2017-Mar-29 01:33N 48°31' W 122°36'0 0.0
2017-Mar-29 00:33N 48°31' W 122°36'1 1.2
2017-Mar-28 23:33N 48°31' W 122°35'1 1.2
2017-Mar-28 22:33N 48°31' W 122°36'2 1.9
2017-Mar-28 21:33N 48°32' W 122°34'2 0.1
2017-Mar-28 05:21N 48°31' W 122°36'0 0.0
2017-Mar-28 04:33N 48°31' W 122°36'0 0.0
2017-Mar-28 03:33N 48°31' W 122°36'0 0.0
2017-Mar-28 02:33N 48°31' W 122°36'0 0.0
2017-Mar-28 01:33N 48°31' W 122°36'0 0.0
2017-Mar-28 00:33N 48°31' W 122°36'1 0.9
2017-Mar-27 23:33N 48°31' W 122°35'1 0.9
2017-Mar-27 22:33N 48°31' W 122°36'5 5.3
2017-Mar-27 21:33N 48°35' W 122°33'5 5.2
2017-Mar-27 20:33N 48°31' W 122°37'0 0.0
2017-Mar-27 19:33N 48°31' W 122°37'0 0.0
2017-Mar-27 18:33N 48°31' W 122°36'0 0.0
2017-Mar-27 17:33N 48°31' W 122°36'0 0.1
2017-Mar-27 16:33N 48°31' W 122°37'6 5.5
2017-Mar-27 15:33N 48°36' W 122°33'3 0.1
2017-Mar-26 20:33N 48°34' W 122°36'3 3.3
2017-Mar-26 19:33N 48°31' W 122°37'0 0.0
2017-Mar-26 18:33N 48°31' W 122°37'0 0.0
2017-Mar-26 05:16N 48°31' W 122°36'0 0.0
2017-Mar-26 04:33N 48°31' W 122°36'0 0.0
2017-Mar-26 01:23N 48°31' W 122°36'0 0.1
2017-Mar-26 00:34N 48°31' W 122°36'0 0.0
2017-Mar-25 23:33N 48°31' W 122°36'0 0.0
2017-Mar-25 22:33N 48°31' W 122°36'0 0.0
2017-Mar-25 21:33N 48°31' W 122°36'0 0.0
2017-Mar-25 20:33N 48°31' W 122°36'2 2.4
2017-Mar-25 19:32N 48°33' W 122°34'1 1.1
2017-Mar-25 18:33N 48°34' W 122°34'3 1.4
2017-Mar-25 16:04N 48°31' W 122°36'510.6
2017-Mar-25 15:33N 48°36' W 122°33'5 0.3
2017-Mar-24 22:22N 48°31' W 122°36'1 1.5
2017-Mar-24 21:33N 48°31' W 122°35'2 2.3
2017-Mar-24 20:33N 48°33' W 122°35'3 0.2
2017-Mar-24 05:24N 48°31' W 122°36'6 7.0
2017-Mar-24 04:33N 48°36' W 122°33'6 1.2
2017-Mar-23 23:33N 48°31' W 122°37'4 3.5
2017-Mar-23 22:33N 48°34' W 122°34'1 1.4
2017-Mar-23 21:33N 48°33' W 122°34'1 0.0
2017-Mar-21 22:09N 48°32' W 122°34'4 4.2
2017-Mar-21 21:13N 48°35' W 122°33'4 0.9
2017-Mar-21 17:08N 48°32' W 122°34'4 7.1
2017-Mar-21 16:33N 48°35' W 122°31'3 0.3
2017-Mar-21 05:33N 48°34' W 122°36'2 1.8
2017-Mar-21 04:33N 48°33' W 122°35'3 0.5
2017-Mar-20 23:33N 48°31' W 122°36'0 0.0
2017-Mar-20 22:33N 48°31' W 122°36'0 0.0
2017-Mar-20 21:33N 48°31' W 122°36'0 0.0
2017-Mar-20 20:33N 48°31' W 122°36'0 0.0
2017-Mar-20 19:33N 48°31' W 122°36'4 3.5
2017-Mar-20 18:33N 48°34' W 122°34'4 3.7
2017-Mar-20 17:33N 48°31' W 122°36'  
Track history (hours):
 
Tides and Currents Weather Stations Pressure Air Temp Water Temp Dewpoint Dewpoint Depression Visibility Wind Speed Wind Dir Waves Ship Positions

Sioux Arrow

Owner: HARMON, JACK L, PORT ANGELES, WA. More information available from US FCC via Universal Licensing System and Coast Guard Vessel Documentation Center.

Last reported at 2017-Mar-30 17:33 UTC. Time now 2017-Mar-30 18:28 UTC.
Position N 48°32' W 122°34'.

Type: Port tender. MMSI: 366973370.

Date/timePositionNaut miles runAvg speedWind from/ knotsBaromVisibWave heightAir tempDewpointWater temp
2017-Mar-30 17:33N 48°32' W 122°34'2 2.2
2017-Mar-30 16:33N 48°31' W 122°37'2 2.0
2017-Mar-30 15:33N 48°32' W 122°34'2 1.9
2017-Mar-30 14:33N 48°31' W 122°36'0 0.0
2017-Mar-30 13:33N 48°31' W 122°36'0 0.0
2017-Mar-30 12:33N 48°31' W 122°36'0 0.0
2017-Mar-30 11:33N 48°31' W 122°36'0 0.0
2017-Mar-30 10:33N 48°31' W 122°36'0 0.0
2017-Mar-30 09:33N 48°31' W 122°36'0 0.0
2017-Mar-30 08:33N 48°31' W 122°36'0 0.0
2017-Mar-30 07:33N 48°31' W 122°36'0 0.0
2017-Mar-30 06:33N 48°31' W 122°36'1 0.5
2017-Mar-30 05:10N 48°31' W 122°35'1 1.2
2017-Mar-30 04:33N 48°31' W 122°36'0 0.1
2017-Mar-30 03:33N 48°31' W 122°37'0 0.1
2017-Mar-30 02:33N 48°31' W 122°36'1 1.3
2017-Mar-30 01:33N 48°31' W 122°35'1 1.3
2017-Mar-30 00:33N 48°31' W 122°36'1 1.1
2017-Mar-29 23:33N 48°31' W 122°35'1 1.1
2017-Mar-29 22:33N 48°31' W 122°36'2 2.1
2017-Mar-29 21:33N 48°32' W 122°34'2 2.1
2017-Mar-29 20:34N 48°31' W 122°36'1 1.1
2017-Mar-29 19:33N 48°31' W 122°35'1 1.1
2017-Mar-29 18:33N 48°31' W 122°36'0 0.1
2017-Mar-29 17:33N 48°31' W 122°37'0 0.0
2017-Mar-29 16:33N 48°31' W 122°37'1 0.6
2017-Mar-29 15:33N 48°31' W 122°36'1 0.5
2017-Mar-29 14:33N 48°31' W 122°36'0 0.1
2017-Mar-29 13:33N 48°31' W 122°36'0 0.0
2017-Mar-29 12:33N 48°31' W 122°36'0 0.0
2017-Mar-29 11:33N 48°31' W 122°36'0 0.0
2017-Mar-29 10:33N 48°31' W 122°36'0 0.0
2017-Mar-29 09:33N 48°31' W 122°36'0 0.0
2017-Mar-29 08:33N 48°31' W 122°36'0 0.0
2017-Mar-29 07:33N 48°31' W 122°36'0 0.0
2017-Mar-29 06:33N 48°31' W 122°36'0 0.0
2017-Mar-29 05:33N 48°31' W 122°36'0 0.0
2017-Mar-29 04:33N 48°31' W 122°36'0 0.0
2017-Mar-29 03:33N 48°31' W 122°36'0 0.0
2017-Mar-29 02:33N 48°31' W 122°36'0 0.0
2017-Mar-29 01:33N 48°31' W 122°36'0 0.0
2017-Mar-29 00:33N 48°31' W 122°36'1 1.2
2017-Mar-28 23:33N 48°31' W 122°35'1 1.2
2017-Mar-28 22:33N 48°31' W 122°36'2 1.9
2017-Mar-28 21:33N 48°32' W 122°34'2 0.1
2017-Mar-28 05:21N 48°31' W 122°36'0 0.0
2017-Mar-28 04:33N 48°31' W 122°36'0 0.0
2017-Mar-28 03:33N 48°31' W 122°36'0 0.0
2017-Mar-28 02:33N 48°31' W 122°36'0 0.0
2017-Mar-28 01:33N 48°31' W 122°36'0 0.0
2017-Mar-28 00:33N 48°31' W 122°36'1 0.9
2017-Mar-27 23:33N 48°31' W 122°35'1 0.9
2017-Mar-27 22:33N 48°31' W 122°36'5 5.3
2017-Mar-27 21:33N 48°35' W 122°33'5 5.2
2017-Mar-27 20:33N 48°31' W 122°37'0 0.0
2017-Mar-27 19:33N 48°31' W 122°37'0 0.0
2017-Mar-27 18:33N 48°31' W 122°36'0 0.0
2017-Mar-27 17:33N 48°31' W 122°36'0 0.1
2017-Mar-27 16:33N 48°31' W 122°37'6 5.5
2017-Mar-27 15:33N 48°36' W 122°33'3 0.1
2017-Mar-26 20:33N 48°34' W 122°36'3 3.3
2017-Mar-26 19:33N 48°31' W 122°37'0 0.0
2017-Mar-26 18:33N 48°31' W 122°37'0 0.0
2017-Mar-26 05:16N 48°31' W 122°36'0 0.0
2017-Mar-26 04:33N 48°31' W 122°36'0 0.0
2017-Mar-26 01:23N 48°31' W 122°36'0 0.1
2017-Mar-26 00:34N 48°31' W 122°36'0 0.0
2017-Mar-25 23:33N 48°31' W 122°36'0 0.0
2017-Mar-25 22:33N 48°31' W 122°36'0 0.0
2017-Mar-25 21:33N 48°31' W 122°36'0 0.0
2017-Mar-25 20:33N 48°31' W 122°36'2 2.4
2017-Mar-25 19:32N 48°33' W 122°34'1 1.1
2017-Mar-25 18:33N 48°34' W 122°34'3 1.4
2017-Mar-25 16:04N 48°31' W 122°36'510.6
2017-Mar-25 15:33N 48°36' W 122°33'5 0.3
2017-Mar-24 22:22N 48°31' W 122°36'1 1.5
2017-Mar-24 21:33N 48°31' W 122°35'2 2.3
2017-Mar-24 20:33N 48°33' W 122°35'3 0.2
2017-Mar-24 05:24N 48°31' W 122°36'6 7.0
2017-Mar-24 04:33N 48°36' W 122°33'6 1.2
2017-Mar-23 23:33N 48°31' W 122°37'4 3.5
2017-Mar-23 22:33N 48°34' W 122°34'1 1.4
2017-Mar-23 21:33N 48°33' W 122°34'1 0.0
2017-Mar-21 22:09N 48°32' W 122°34'4 4.2
2017-Mar-21 21:13N 48°35' W 122°33'4 0.9
2017-Mar-21 17:08N 48°32' W 122°34'4 7.1
2017-Mar-21 16:33N 48°35' W 122°31'3 0.3
2017-Mar-21 05:33N 48°34' W 122°36'2 1.8
2017-Mar-21 04:33N 48°33' W 122°35'3 0.5
2017-Mar-20 23:33N 48°31' W 122°36'0 0.0
2017-Mar-20 22:33N 48°31' W 122°36'0 0.0
2017-Mar-20 21:33N 48°31' W 122°36'0 0.0
2017-Mar-20 20:33N 48°31' W 122°36'0 0.0
2017-Mar-20 19:33N 48°31' W 122°36'4 3.5
2017-Mar-20 18:33N 48°34' W 122°34'4 3.7
2017-Mar-20 17:33N 48°31' W 122°36'  

Dump ship's entire track history